Time;durP1;ratioP1;P1;durP2;ratioP2;P2;SDS_P1;SDS_P2;PMS_P1;PMS_P2;Temp;Humidity;BMP_temperature;BMP_pressure;BME280_temperature;BME280_humidity;BME280_pressure;Samples;Min_cycle;Max_cycle;Signal;HPM_P1;HPM_P2
2023/02/11 00:00:53;;;;;;;25.60;13.88;;;;;;;-3.77;99.45;99240.00;5060617;28;20459;-56
2023/02/11 00:03:19;;;;;;;24.13;12.80;;;;;;;-3.77;99.36;99242.63;5059571;28;20051;-58
2023/02/11 00:05:56;;;;;;;26.60;13.77;;;;;;;-3.73;99.29;99239.63;5057086;28;20115;-57
2023/02/11 00:08:22;;;;;;;26.45;13.60;;;;;;;-3.79;99.19;99243.56;5062614;28;20033;-58
2023/02/11 00:10:57;;;;;;;27.73;12.77;;;;;;;-3.80;99.50;99249.84;5063346;28;20098;-57
2023/02/11 00:13:24;;;;;;;22.40;12.52;;;;;;;-3.80;99.27;99247.19;5062114;28;20676;-58
2023/02/11 00:15:51;;;;;;;28.17;14.77;;;;;;;-3.79;99.59;99248.03;5060429;28;20049;-58
2023/02/11 00:18:18;;;;;;;28.38;13.50;;;;;;;-3.85;99.59;99237.91;5059731;28;21363;-57
2023/02/11 00:20:44;;;;;;;26.63;14.75;;;;;;;-3.93;99.91;99234.03;5059211;28;20036;-58
2023/02/11 00:23:11;;;;;;;31.25;15.15;;;;;;;-3.96;100.00;99230.75;5058722;28;20044;-57
2023/02/11 00:25:43;;;;;;;29.20;13.77;;;;;;;-3.97;100.00;99232.56;5058906;28;20036;-56
2023/02/11 00:28:11;;;;;;;28.55;14.77;;;;;;;-3.97;100.00;99224.63;5055962;28;20453;-55
2023/02/11 00:30:39;;;;;;;25.70;12.38;;;;;;;-3.97;100.00;99221.13;5059114;28;20041;-57
2023/02/11 00:33:06;;;;;;;29.08;15.23;;;;;;;-3.99;100.00;99223.88;5051879;28;20073;-56
2023/02/11 00:35:35;;;;;;;28.83;13.25;;;;;;;-4.02;100.00;99231.22;5057903;28;20048;-58
2023/02/11 00:38:02;;;;;;;25.85;12.13;;;;;;;-4.02;100.00;99231.22;5060452;28;20045;-57
2023/02/11 00:40:30;;;;;;;25.88;13.27;;;;;;;-4.06;100.00;99230.56;5065558;28;20112;-55
2023/02/11 00:42:56;;;;;;;24.40;12.25;;;;;;;-4.06;100.00;99235.84;5058935;28;20048;-58
2023/02/11 00:45:23;;;;;;;27.88;13.02;;;;;;;-3.83;99.27;99231.53;5065985;28;20049;-58
2023/02/11 00:47:49;;;;;;;22.08;11.77;;;;;;;-3.84;98.97;99229.03;5067392;28;20036;-55
2023/02/11 00:50:16;;;;;;;23.73;12.80;;;;;;;-4.01;99.53;99235.53;5066571;28;20132;-55
2023/02/11 00:52:42;;;;;;;22.80;11.45;;;;;;;-4.01;100.00;99232.88;5065526;28;20045;-57
2023/02/11 00:55:09;;;;;;;20.60;10.95;;;;;;;-4.10;100.00;99237.03;5064644;28;20051;-57
2023/02/11 00:57:35;;;;;;;20.13;10.70;;;;;;;-3.93;100.00;99236.69;5063472;28;20518;-58
2023/02/11 01:00:04;;;;;;;18.83;10.68;;;;;;;-4.00;99.79;99237.22;5066187;28;20071;-59
2023/02/11 01:02:30;;;;;;;20.55;10.70;;;;;;;-4.14;99.78;99231.13;5059303;28;20041;-58
2023/02/11 01:04:58;;;;;;;19.40;10.10;;;;;;;-4.20;100.00;99224.47;5058022;28;20685;-59
2023/02/11 01:07:26;;;;;;;25.88;11.50;;;;;;;-4.15;100.00;99220.66;5058727;28;20059;-57
2023/02/11 01:09:53;;;;;;;23.98;10.80;;;;;;;-4.35;100.00;99215.84;5062585;28;20041;-59
2023/02/11 01:12:20;;;;;;;25.48;11.57;;;;;;;-4.31;100.00;99211.22;5058585;28;20037;-59
2023/02/11 01:14:47;;;;;;;24.30;12.43;;;;;;;-4.03;100.00;99213.66;5058274;28;20577;-59
2023/02/11 01:17:14;;;;;;;22.67;13.05;;;;;;;-3.98;100.00;99217.63;5063080;28;20504;-59
2023/02/11 01:19:41;;;;;;;25.40;13.30;;;;;;;-3.97;100.00;99211.41;5063163;28;20048;-59
2023/02/11 01:22:08;;;;;;;24.40;12.35;;;;;;;-4.03;100.00;99208.34;5062035;28;20068;-59
2023/02/11 01:24:34;;;;;;;22.02;11.95;;;;;;;-4.14;100.00;99194.09;5059789;28;20047;-57
2023/02/11 01:27:01;;;;;;;22.27;12.27;;;;;;;-4.11;100.00;99190.38;5059901;28;20082;-56
2023/02/11 01:29:27;;;;;;;21.38;11.50;;;;;;;-4.15;100.00;99187.13;5064765;28;20075;-56
2023/02/11 01:31:53;;;;;;;23.90;12.57;;;;;;;-4.19;100.00;99193.59;5064886;28;20147;-58
2023/02/11 01:34:20;;;;;;;27.10;12.93;;;;;;;-4.21;100.00;99187.56;5063821;28;20048;-54
2023/02/11 01:36:48;;;;;;;21.98;11.02;;;;;;;-4.20;100.00;99181.31;5061976;28;20123;-58
2023/02/11 01:39:15;;;;;;;27.75;12.05;;;;;;;-4.19;100.00;99183.00;5063445;28;20043;-58
2023/02/11 01:41:41;;;;;;;21.15;11.95;;;;;;;-4.28;100.00;99181.03;5065608;28;21157;-57
2023/02/11 01:44:31;;;;;;;21.60;11.80;;;;;;;-4.29;100.00;99174.03;5079886;28;20028;-58
2023/02/11 01:46:58;;;;;;;26.65;11.90;;;;;;;-4.28;100.00;99178.41;5058604;28;20561;-57
2023/02/11 01:49:35;;;;;;;23.27;11.60;;;;;;;-4.36;100.00;99181.56;5061116;28;20111;-59
2023/02/11 01:52:08;;;;;;;24.08;10.68;;;;;;;-4.33;100.00;99184.00;5063262;28;20044;-59
2023/02/11 01:57:33;;;;;;;19.55;10.68;;;;;;;-4.35;100.00;99178.81;5059670;28;20068;-58
2023/02/11 02:00:06;;;;;;;21.05;10.70;;;;;;;-4.38;100.00;99178.22;5060868;28;20106;-59
2023/02/11 02:03:01;;;;;;;19.83;11.77;;;;;;;-4.43;100.00;99167.97;5060411;28;20424;-58
2023/02/11 02:05:42;;;;;;;24.10;13.05;;;;;;;-4.42;100.00;99182.03;5057776;28;20047;-59
2023/02/11 02:08:33;;;;;;;23.67;11.50;;;;;;;-4.34;100.00;99177.03;5064296;28;20531;-59
2023/02/11 02:11:00;;;;;;;;;;;;;;;-4.19;100.00;99181.22;5064864;28;20032;-59
2023/02/11 02:13:30;;;;;;;20.02;10.38;;;;;;;-4.13;100.00;99164.03;5060782;28;19927;-59
2023/02/11 02:16:03;;;;;;;21.13;10.40;;;;;;;-3.91;100.00;99165.06;5060688;28;20048;-59
2023/02/11 02:19:09;;;;;;;21.55;10.23;;;;;;;-3.88;100.00;99159.56;5063600;28;20041;-58
2023/02/11 02:22:00;;;;;;;26.42;13.07;;;;;;;-3.88;100.00;99159.56;5053555;28;20036;-58
2023/02/11 02:24:55;;;;;;;24.05;11.80;;;;;;;-3.86;100.00;99152.38;5050661;28;20075;-58
2023/02/11 02:27:46;;;;;;;20.25;11.02;;;;;;;-3.80;100.00;99158.97;5050090;28;20036;-58
2023/02/11 02:30:47;;;;;;;21.15;9.93;;;;;;;-3.63;99.62;99146.28;5056215;28;20097;-59
2023/02/11 02:33:22;;;;;;;18.25;9.88;;;;;;;-3.53;98.69;99148.09;5053986;28;20048;-57
2023/02/11 02:36:04;;;;;;;22.30;10.50;;;;;;;-3.59;97.81;99148.59;5053049;28;20451;-59
2023/02/11 02:38:36;;;;;;;21.30;10.82;;;;;;;-3.59;97.42;99138.00;5054763;28;20040;-57
2023/02/11 02:41:09;;;;;;;22.17;10.75;;;;;;;-3.66;98.54;99136.75;5063280;28;20670;-58
2023/02/11 02:43:48;;;;;;;18.90;11.05;;;;;;;-3.77;98.73;99140.22;5057570;28;20446;-58
2023/02/11 02:46:16;;;;;;;24.35;11.10;;;;;;;-3.87;100.00;99140.06;5055028;28;20161;-57
2023/02/11 02:48:44;;;;;;;22.30;11.48;;;;;;;-4.01;99.90;99135.84;5051620;28;20055;-57
2023/02/11 02:51:37;;;;;;;21.33;10.93;;;;;;;-4.14;100.00;99141.19;5054172;28;20546;-58
2023/02/11 02:54:19;;;;;;;20.05;10.50;;;;;;;-4.42;100.00;99143.22;5058010;28;20086;-58
2023/02/11 02:57:01;;;;;;;22.08;11.00;;;;;;;-4.59;100.00;99134.72;5055543;28;20071;-58
2023/02/11 02:59:49;;;;;;;19.67;10.13;;;;;;;-4.60;100.00;99130.34;5053055;28;20125;-58
2023/02/11 03:02:32;;;;;;;22.83;12.23;;;;;;;-4.40;100.00;99132.50;5055445;28;20066;-59
2023/02/11 03:05:20;;;;;;;25.83;12.65;;;;;;;-4.35;100.00;99125.09;5059824;28;20044;-58
2023/02/11 03:08:08;;;;;;;19.02;10.20;;;;;;;-4.16;100.00;99116.66;5060524;28;20116;-59
2023/02/11 03:10:40;;;;;;;23.48;11.07;;;;;;;-4.22;100.00;99128.53;5055441;28;20106;-57
2023/02/11 03:13:07;;;;;;;18.95;10.70;;;;;;;-4.15;100.00;99120.97;5055897;28;20567;-59
2023/02/11 03:15:40;;;;;;;18.67;10.40;;;;;;;-4.10;100.00;99123.25;5059049;28;20115;-57
2023/02/11 03:18:10;;;;;;;25.75;11.85;;;;;;;-4.14;100.00;99101.50;5058344;28;20041;-58
2023/02/11 03:20:40;;;;;;;23.77;10.55;;;;;;;-4.10;100.00;99080.94;5053352;28;20036;-59
2023/02/11 03:23:13;;;;;;;23.33;12.35;;;;;;;-3.99;100.00;99082.78;5059596;28;20079;-59
2023/02/11 03:25:49;;;;;;;19.90;11.90;;;;;;;-3.89;100.00;99089.06;5047567;28;20127;-59
2023/02/11 03:28:45;;;;;;;24.92;11.93;;;;;;;-3.85;100.00;99074.63;5058614;28;20047;-58
2023/02/11 03:31:11;;;;;;;17.52;9.63;;;;;;;-3.67;100.00;99092.72;5040418;28;20076;-57
2023/02/11 03:33:53;;;;;;;22.08;10.20;;;;;;;-3.41;100.00;99108.41;5050545;28;20112;-57
2023/02/11 03:36:39;;;;;;;20.15;10.10;;;;;;;-3.33;99.63;99095.41;5059711;28;20044;-57
2023/02/11 03:39:09;;;;;;;18.98;9.82;;;;;;;-3.50;100.00;99104.66;5060022;28;20051;-59
2023/02/11 03:41:36;;;;;;;19.02;8.90;;;;;;;-3.59;100.00;99100.06;5048570;28;20029;-56
2023/02/11 03:44:04;;;;;;;19.95;11.80;;;;;;;-3.75;100.00;99100.41;5059304;28;20068;-57
2023/02/11 03:46:37;;;;;;;21.45;11.82;;;;;;;-3.86;100.00;99101.22;5053678;28;20044;-57
2023/02/11 03:49:09;;;;;;;21.48;12.02;;;;;;;-3.94;100.00;99099.16;5060514;28;20044;-57
2023/02/11 03:51:38;;;;;;;24.90;12.45;;;;;;;-3.98;100.00;99101.19;5056798;28;20040;-58
2023/02/11 03:54:10;;;;;;;20.20;12.05;;;;;;;-4.04;100.00;99104.31;5057047;28;20120;-58
2023/02/11 03:56:49;;;;;;;30.42;13.88;;;;;;;-4.00;100.00;99084.59;5051594;28;20040;-57
2023/02/11 03:59:16;;;;;;;21.45;10.15;;;;;;;-3.95;100.00;99084.22;5053851;28;20064;-58
2023/02/11 04:01:42;;;;;;;25.85;12.45;;;;;;;-3.87;100.00;99089.78;5050694;28;20079;-56
2023/02/11 04:04:09;;;;;;;19.90;11.85;;;;;;;-3.72;100.00;99101.00;5058993;28;20131;-58
2023/02/11 04:06:36;;;;;;;22.83;9.63;;;;;;;-3.57;100.00;99098.97;5052692;28;20048;-58
2023/02/11 04:09:02;;;;;;;20.52;11.30;;;;;;;-3.51;100.00;99112.72;5053783;28;20109;-58
2023/02/11 04:11:29;;;;;;;20.48;11.95;;;;;;;-3.45;100.00;99109.59;5056319;28;20553;-56
2023/02/11 04:13:55;;;;;;;23.08;11.20;;;;;;;-3.46;100.00;99110.56;5055058;28;20048;-56
2023/02/11 04:16:22;;;;;;;21.25;12.02;;;;;;;-3.50;100.00;99109.97;5056776;28;20119;-58
2023/02/11 04:18:49;;;;;;;22.08;12.55;;;;;;;-3.43;100.00;99115.63;5055265;28;20043;-57
2023/02/11 04:21:15;;;;;;;20.70;10.68;;;;;;;-3.43;100.00;99120.94;5051857;28;20549;-58
2023/02/11 04:23:42;;;;;;;23.65;11.90;;;;;;;-3.35;100.00;99121.19;5059794;28;20156;-59
2023/02/11 04:26:08;;;;;;;21.52;11.80;;;;;;;-3.32;100.00;99120.91;5056078;28;20040;-57
2023/02/11 04:28:35;;;;;;;21.92;10.93;;;;;;;-3.29;100.00;99115.41;5060086;28;20072;-57
2023/02/11 04:31:01;;;;;;;22.27;11.25;;;;;;;-3.20;100.00;99100.59;5058838;28;20091;-57
2023/02/11 04:33:28;;;;;;;22.13;11.07;;;;;;;-3.00;100.00;99111.41;5052635;28;20051;-58
2023/02/11 04:35:54;;;;;;;20.08;10.90;;;;;;;-3.05;100.00;99103.84;5060024;28;20609;-59
2023/02/11 04:38:22;;;;;;;20.80;10.45;;;;;;;-3.06;100.00;99094.19;5054523;28;20043;-58
2023/02/11 04:40:49;;;;;;;16.58;9.35;;;;;;;-2.97;100.00;99105.88;5054601;28;20635;-57
2023/02/11 04:43:16;;;;;;;20.20;10.07;;;;;;;-2.90;100.00;99095.63;5057948;28;20500;-59
2023/02/11 04:45:42;;;;;;;20.85;10.73;;;;;;;-2.83;100.00;99093.31;5056915;28;20049;-58
2023/02/11 04:48:09;;;;;;;18.88;9.88;;;;;;;-2.74;100.00;99095.22;5055332;28;20047;-57
2023/02/11 04:50:35;;;;;;;20.08;9.88;;;;;;;-2.61;100.00;99097.75;5055946;28;20454;-57
2023/02/11 04:53:02;;;;;;;17.90;8.85;;;;;;;-2.53;100.00;99105.06;5058556;28;21903;-56
2023/02/11 04:55:28;;;;;;;19.65;9.60;;;;;;;-2.43;100.00;99105.16;5058348;28;20049;-56
2023/02/11 04:57:55;;;;;;;19.98;9.35;;;;;;;-2.40;100.00;99097.78;5055373;28;20072;-58
2023/02/11 05:00:21;;;;;;;19.08;9.45;;;;;;;-2.26;100.00;99103.75;5054782;28;20082;-57
2023/02/11 05:02:48;;;;;;;18.95;10.00;;;;;;;-2.26;99.64;99101.97;5051812;28;20049;-57
2023/02/11 05:05:14;;;;;;;21.98;10.32;;;;;;;-2.31;100.00;99088.25;5054810;28;20037;-58
2023/02/11 05:07:41;;;;;;;17.52;9.13;;;;;;;-2.33;100.00;99097.31;5058826;28;20113;-58
2023/02/11 05:10:07;;;;;;;17.85;9.68;;;;;;;-2.36;100.00;99085.13;5053247;28;20459;-57
2023/02/11 05:12:34;;;;;;;18.65;10.27;;;;;;;-2.38;100.00;99085.25;5054830;28;20040;-57
2023/02/11 05:15:00;;;;;;;20.05;9.13;;;;;;;-2.30;100.00;99081.09;5055358;28;20041;-58
2023/02/11 05:17:27;;;;;;;14.85;7.15;;;;;;;-2.11;99.85;99068.00;5058590;28;20075;-58
2023/02/11 05:19:53;;;;;;;22.20;10.10;;;;;;;-2.06;99.30;99050.84;5057513;28;20405;-58
2023/02/11 05:22:20;;;;;;;19.70;9.45;;;;;;;-1.92;98.56;99039.91;5064776;28;20071;-55
2023/02/11 05:24:47;;;;;;;15.00;7.57;;;;;;;-1.92;98.38;99039.91;5055009;28;20553;-58
2023/02/11 05:27:14;;;;;;;14.48;7.63;;;;;;;-1.86;97.51;99039.38;5058246;28;20102;-59
2023/02/11 05:29:41;;;;;;;15.65;7.63;;;;;;;-1.81;97.06;99044.28;5060174;28;20072;-59
2023/02/11 05:32:07;;;;;;;14.73;7.93;;;;;;;-1.80;96.75;99032.72;5058687;28;20036;-60
2023/02/11 05:34:35;;;;;;;16.42;8.35;;;;;;;-1.80;96.49;99037.19;5057875;28;20056;-56
2023/02/11 05:37:01;;;;;;;18.23;9.63;;;;;;;-1.83;96.79;99028.47;5060353;28;20047;-59
2023/02/11 05:39:27;;;;;;;14.48;8.93;;;;;;;-1.85;97.08;99026.94;5057473;28;20600;-58
2023/02/11 05:41:54;;;;;;;15.98;9.38;;;;;;;-1.83;97.00;99032.97;5062174;28;20123;-57
2023/02/11 05:44:21;;;;;;;13.75;8.32;;;;;;;-1.63;95.66;99036.56;5057810;28;20419;-57
2023/02/11 05:46:48;;;;;;;16.35;8.63;;;;;;;-1.48;94.96;99042.38;5059308;28;20555;-58
2023/02/11 05:49:16;;;;;;;15.80;8.57;;;;;;;-1.45;94.09;99052.75;5061568;28;20064;-57
2023/02/11 05:51:42;;;;;;;12.70;7.28;;;;;;;-1.37;94.15;99057.38;5054298;28;20101;-59
2023/02/11 05:54:09;;;;;;;16.02;7.57;;;;;;;-1.25;93.99;99065.28;5059069;28;20057;-59
2023/02/11 05:56:36;;;;;;;13.10;7.80;;;;;;;-1.33;94.99;99065.94;5065445;28;20499;-58
2023/02/11 05:59:02;;;;;;;15.50;7.72;;;;;;;-1.49;96.12;99059.28;5057255;28;20041;-59
2023/02/11 06:01:29;;;;;;;13.02;6.65;;;;;;;-1.42;95.28;99062.25;5057724;28;20426;-59
2023/02/11 06:03:55;;;;;;;13.45;7.85;;;;;;;-1.33;94.55;99065.94;5062249;28;20551;-58
2023/02/11 06:06:22;;;;;;;13.25;6.85;;;;;;;-1.25;94.41;99063.44;5058874;28;20041;-59
2023/02/11 06:08:49;;;;;;;14.45;7.65;;;;;;;-1.19;93.20;99068.22;5057188;28;20041;-58
2023/02/11 06:11:16;;;;;;;12.88;7.28;;;;;;;-1.11;92.94;99066.72;5062127;28;20048;-58
2023/02/11 06:13:43;;;;;;;13.82;7.55;;;;;;;-0.94;92.47;99073.22;5056335;28;20501;-58
2023/02/11 06:16:09;;;;;;;16.17;7.50;;;;;;;-0.89;91.84;99076.28;5057551;28;20040;-57
2023/02/11 06:18:36;;;;;;;13.35;6.15;;;;;;;-0.95;92.27;99082.16;5056156;28;20033;-57
2023/02/11 06:21:06;;;;;;;17.05;7.80;;;;;;;-1.07;93.07;99078.78;5051655;28;20044;-57
2023/02/11 06:23:33;;;;;;;15.48;8.32;;;;;;;-1.12;94.20;99070.34;5058696;28;20071;-57
2023/02/11 06:26:05;;;;;;;14.07;6.90;;;;;;;-1.14;94.71;99067.81;5059031;28;20046;-56
2023/02/11 06:28:32;;;;;;;14.30;7.97;;;;;;;-1.14;95.05;99062.50;5052785;28;20048;-56
2023/02/11 06:31:05;;;;;;;15.43;8.10;;;;;;;-1.35;96.08;99059.91;5058988;28;20203;-58
2023/02/11 06:33:33;;;;;;;14.70;8.10;;;;;;;-1.41;97.20;99063.13;5054020;28;20508;-57
2023/02/11 06:35:59;;;;;;;13.68;7.90;;;;;;;-1.53;97.36;99057.88;5058435;28;20047;-58
2023/02/11 06:38:26;;;;;;;15.05;8.20;;;;;;;-1.54;97.96;99058.84;5059034;28;20043;-58
2023/02/11 06:40:53;;;;;;;16.08;9.60;;;;;;;-1.56;98.21;99058.13;5058626;28;20406;-58
2023/02/11 06:43:19;;;;;;;16.63;8.25;;;;;;;-1.48;97.56;99068.09;5056554;28;20500;-58
2023/02/11 06:45:52;;;;;;;15.98;7.18;;;;;;;-1.37;97.96;99069.84;5056215;28;20036;-57
2023/02/11 06:48:19;;;;;;;14.55;7.72;;;;;;;-1.41;97.30;99066.59;5058807;28;20048;-57
2023/02/11 06:50:46;;;;;;;17.90;10.13;;;;;;;-1.42;98.38;99070.22;5055788;28;20053;-57
2023/02/11 06:53:13;;;;;;;14.18;8.35;;;;;;;-1.43;98.64;99068.56;5060242;28;20032;-55
2023/02/11 06:55:39;;;;;;;16.70;9.13;;;;;;;-1.38;98.67;99079.63;5059988;28;20369;-56
2023/02/11 06:58:05;;;;;;;16.77;8.45;;;;;;;-1.28;98.92;99076.16;5055504;28;20312;-57
2023/02/11 07:00:32;;;;;;;15.13;8.57;;;;;;;-1.32;99.32;99072.94;5052897;28;20397;-56
2023/02/11 07:02:58;;;;;;;14.98;7.82;;;;;;;-1.21;99.31;99083.47;5056253;28;20045;-54
2023/02/11 07:05:25;;;;;;;16.10;8.70;;;;;;;-1.14;99.41;99088.25;5062437;28;20056;-56
2023/02/11 07:07:51;;;;;;;18.42;8.38;;;;;;;-1.12;99.16;99087.16;5061478;28;20071;-56
2023/02/11 07:10:18;;;;;;;14.02;8.02;;;;;;;-1.12;98.91;99078.31;5058658;28;20794;-57
2023/02/11 07:12:44;;;;;;;15.23;7.25;;;;;;;-1.16;98.09;99066.28;5053016;28;20040;-58
2023/02/11 07:15:11;;;;;;;16.75;7.50;;;;;;;-1.07;97.32;99073.47;5053340;28;20068;-58
2023/02/11 07:17:37;;;;;;;14.93;7.80;;;;;;;-1.07;97.30;99073.47;5054906;28;20048;-58
2023/02/11 07:20:04;;;;;;;12.32;7.35;;;;;;;-0.98;96.56;99072.66;5056762;28;20127;-58
2023/02/11 07:22:32;;;;;;;15.18;8.25;;;;;;;-0.87;95.60;99073.50;5052831;28;20040;-58
2023/02/11 07:24:59;;;;;;;16.65;8.45;;;;;;;-0.89;96.08;99072.81;5056782;28;20120;-58
2023/02/11 07:27:25;;;;;;;13.50;7.63;;;;;;;-0.77;94.57;99084.16;5057941;28;20160;-58
2023/02/11 07:29:52;;;;;;;12.55;7.80;;;;;;;-0.76;94.22;99084.03;5063384;28;20044;-58
2023/02/11 07:32:18;;;;;;;13.10;6.85;;;;;;;-0.79;94.55;99098.47;5060712;28;20047;-56
2023/02/11 07:34:46;;;;;;;12.70;7.38;;;;;;;-0.68;94.20;99100.16;5055406;28;20044;-57
2023/02/11 07:37:13;;;;;;;13.07;6.63;;;;;;;-0.55;94.40;99107.06;5053228;28;20040;-57
2023/02/11 07:39:40;;;;;;;11.88;7.03;;;;;;;-0.55;94.10;99115.03;5056546;28;20095;-56
2023/02/11 07:42:06;;;;;;;12.65;6.50;;;;;;;-0.46;93.52;99116.88;5057561;28;20350;-59
2023/02/11 07:44:33;;;;;;;13.50;7.95;;;;;;;-0.53;95.19;99115.72;5054421;28;20086;-56
2023/02/11 07:47:00;;;;;;;12.18;7.05;;;;;;;-0.59;94.38;99108.31;5058145;28;20539;-57
2023/02/11 07:49:27;;;;;;;14.43;8.35;;;;;;;-0.56;94.86;99105.34;5056138;28;20500;-57
2023/02/11 07:51:54;;;;;;;15.02;7.63;;;;;;;-0.68;96.12;99094.84;5058053;28;20060;-56
2023/02/11 07:54:20;;;;;;;13.85;7.97;;;;;;;-0.71;96.70;99088.94;5061766;28;20048;-54
2023/02/11 07:56:47;;;;;;;13.02;8.80;;;;;;;-0.64;96.60;99084.75;5052649;28;20040;-57
2023/02/11 07:59:13;;;;;;;19.55;9.25;;;;;;;-0.59;96.55;99085.19;5055142;28;20072;-54
2023/02/11 08:01:40;;;;;;;14.68;7.25;;;;;;;-0.46;95.02;99079.59;5059549;28;20043;-54
2023/02/11 08:04:07;;;;;;;14.73;7.93;;;;;;;-0.35;94.32;99075.97;5057723;28;20527;-55
2023/02/11 08:06:34;;;;;;;12.93;7.95;;;;;;;-0.30;93.64;99064.88;5060187;28;20060;-54
2023/02/11 08:09:06;;;;;;;14.85;6.72;;;;;;;-0.22;93.26;99069.53;5060449;28;20049;-54
2023/02/11 08:11:33;;;;;;;13.75;7.30;;;;;;;-0.14;93.18;99073.16;5058990;28;20112;-56
2023/02/11 08:14:00;;;;;;;15.57;7.53;;;;;;;-0.14;93.92;99080.31;5061532;28;20106;-53
2023/02/11 08:16:31;;;;;;;12.95;8.15;;;;;;;-0.17;94.93;99072.59;5055083;28;20045;-54
2023/02/11 08:19:01;;;;;;;30.38;8.27;;;;;;;-0.09;95.22;99075.41;5058034;28;20052;-54
2023/02/11 08:21:28;;;;;;;14.93;9.15;;;;;;;-0.08;95.15;99063.78;5054284;28;20068;-55
2023/02/11 08:23:55;;;;;;;13.05;7.43;;;;;;;-0.03;95.66;99074.84;5056636;28;20087;-56
2023/02/11 08:26:27;;;;;;;14.32;7.88;;;;;;;0.12;94.65;99077.91;5051179;28;20117;-56
2023/02/11 08:28:54;;;;;;;;;;;;;;;0.18;93.81;99079.16;5056984;28;20051;-55
2023/02/11 08:31:24;;;;;;;12.75;7.05;;;;;;;0.15;94.40;99073.28;5055995;28;19931;-56
2023/02/11 08:33:52;;;;;;;13.30;6.30;;;;;;;0.21;94.58;99081.53;5052952;28;20110;-57
2023/02/11 08:36:22;;;;;;;12.05;6.85;;;;;;;0.46;93.00;99079.25;5053391;28;20056;-58
2023/02/11 08:38:48;;;;;;;11.40;6.18;;;;;;;0.68;91.12;99073.72;5056809;28;20119;-58
2023/02/11 08:41:16;;;;;;;14.20;8.00;;;;;;;0.59;92.25;99067.44;5053164;28;20040;-59
2023/02/11 08:43:43;;;;;;;11.82;8.07;;;;;;;0.59;92.18;99054.94;5055779;28;20044;-59
2023/02/11 08:46:14;;;;;;;15.00;10.02;;;;;;;0.73;92.56;99052.78;5056910;28;20483;-58
2023/02/11 08:48:40;;;;;;;12.73;7.47;;;;;;;0.81;91.82;99063.53;5055906;28;20063;-57
2023/02/11 08:51:14;;;;;;;11.75;6.85;;;;;;;0.96;90.94;99063.91;5052258;28;20033;-58
2023/02/11 08:53:41;;;;;;;13.70;7.05;;;;;;;1.06;91.58;99066.53;5061724;28;20032;-57
2023/02/11 08:56:10;;;;;;;13.85;8.85;;;;;;;1.16;90.99;99070.00;5055390;28;20467;-58
2023/02/11 08:58:39;;;;;;;16.60;9.77;;;;;;;1.19;90.49;99066.19;5055123;28;20048;-58
2023/02/11 09:01:23;;;;;;;13.15;7.57;;;;;;;1.38;89.70;99075.06;5060857;28;20048;-57
2023/02/11 09:03:50;;;;;;;9.73;5.22;;;;;;;1.49;88.66;99087.34;5057234;28;20132;-58
2023/02/11 09:06:18;;;;;;;12.45;6.50;;;;;;;1.57;88.09;99076.75;5056079;28;20115;-58
2023/02/11 09:08:48;;;;;;;15.32;6.25;;;;;;;1.45;88.68;99075.28;5055817;28;20110;-58
2023/02/11 09:11:16;;;;;;;12.80;6.97;;;;;;;1.46;88.87;99068.94;5059936;28;20040;-58
2023/02/11 09:13:44;;;;;;;9.30;5.72;;;;;;;1.53;88.05;99072.72;5057686;28;20101;-58
2023/02/11 09:16:22;;;;;;;21.85;14.18;;;;;;;1.55;88.35;99065.41;5054225;28;20131;-55
2023/02/11 09:18:49;;;;;;;17.55;9.05;;;;;;;1.55;88.45;99062.72;5054418;28;20044;-59
2023/02/11 09:21:16;;;;;;;16.10;8.77;;;;;;;1.52;88.65;99065.69;5057346;28;20044;-57
2023/02/11 09:23:46;;;;;;;17.80;10.80;;;;;;;1.58;88.34;99059.75;5057881;28;20081;-56
2023/02/11 09:26:19;;;;;;;17.88;9.57;;;;;;;1.56;87.99;99062.56;5059937;28;20041;-58
2023/02/11 09:28:47;;;;;;;34.05;15.57;;;;;;;1.59;88.10;99058.78;5061295;28;20044;-58
2023/02/11 09:31:16;;;;;;;29.30;14.15;;;;;;;1.66;87.82;99056.31;5062484;28;20036;-58
2023/02/11 09:33:47;;;;;;;15.77;8.80;;;;;;;1.77;88.16;99055.25;5056561;28;20044;-58
2023/02/11 09:36:20;;;;;;;14.55;7.97;;;;;;;1.90;87.76;99063.72;5059935;28;20124;-58
2023/02/11 09:38:47;;;;;;;14.27;8.60;;;;;;;2.04;87.37;99056.13;5058504;28;20082;-57
2023/02/11 09:41:31;;;;;;;15.75;11.05;;;;;;;2.25;86.48;99055.78;5060202;28;20553;-57
2023/02/11 09:44:04;;;;;;;11.55;7.38;;;;;;;2.50;84.71;99063.16;5062768;28;20044;-57
2023/02/11 09:46:36;;;;;;;11.80;5.65;;;;;;;2.67;84.55;99064.06;5056719;28;20136;-55
2023/02/11 09:49:04;;;;;;;9.82;4.75;;;;;;;2.80;83.12;99074.34;5057082;28;20052;-59
2023/02/11 09:52:05;;;;;;;9.95;4.80;;;;;;;2.94;83.38;99071.06;5062023;28;20044;-58
2023/02/11 09:54:52;;;;;;;7.32;3.63;;;;;;;3.05;82.28;99083.31;5056920;28;20129;-62
2023/02/11 09:57:19;;;;;;;7.00;3.70;;;;;;;3.22;81.56;99078.88;5062944;28;20649;-58
2023/02/11 09:59:55;;;;;;;5.57;3.33;;;;;;;3.29;80.32;99081.75;5062033;28;20143;-58
2023/02/11 10:02:44;;;;;;;7.93;3.78;;;;;;;3.40;80.21;99085.09;5059714;28;20040;-59
2023/02/11 10:05:29;;;;;;;9.88;3.53;;;;;;;3.59;79.61;99086.66;5053835;28;20526;-58
2023/02/11 10:08:08;;;;;;;11.68;5.70;;;;;;;3.76;78.15;99099.09;5058834;28;20117;-57
2023/02/11 10:10:52;;;;;;;7.10;3.42;;;;;;;3.86;77.34;99096.25;5062978;28;20045;-58
2023/02/11 10:13:34;;;;;;;7.10;3.00;;;;;;;4.01;77.35;99082.19;5059533;28;20654;-57
2023/02/11 10:16:07;;;;;;;8.23;4.05;;;;;;;4.14;76.64;99087.06;5058383;28;20897;-59
2023/02/11 10:18:45;;;;;;;6.72;3.60;;;;;;;4.34;75.77;99089.38;5058937;28;20040;-58
2023/02/11 10:21:35;;;;;;;5.60;3.17;;;;;;;4.35;74.99;99088.41;5056514;28;20132;-59
2023/02/11 10:24:08;;;;;;;6.90;3.08;;;;;;;4.35;74.99;99093.75;5057568;28;20040;-58
2023/02/11 10:26:38;;;;;;;7.07;3.15;;;;;;;4.31;75.40;99090.56;5062087;28;20470;-59
2023/02/11 10:29:22;;;;;;;6.65;3.42;;;;;;;4.42;75.61;99092.91;5053150;28;20131;-57
2023/02/11 10:31:49;;;;;;;6.80;3.03;;;;;;;4.49;75.46;99101.09;5050627;28;20141;-59
2023/02/11 10:34:16;;;;;;;8.65;3.88;;;;;;;4.53;76.02;99096.22;5062202;28;20110;-59
2023/02/11 10:36:44;;;;;;;6.80;3.63;;;;;;;4.54;76.18;99092.56;5060301;28;20036;-57
2023/02/11 10:39:15;;;;;;;8.85;3.90;;;;;;;4.58;75.55;99090.38;5056346;28;20685;-58
2023/02/11 10:41:49;;;;;;;11.55;4.40;;;;;;;4.61;75.85;99090.03;5050578;28;20508;-57
2023/02/11 10:44:25;;;;;;;9.05;4.68;;;;;;;4.69;76.05;99090.03;5058558;28;20041;-58
2023/02/11 10:46:53;;;;;;;10.85;4.90;;;;;;;4.62;76.27;99078.28;5057376;28;20040;-58
2023/02/11 10:49:46;;;;;;;10.00;4.80;;;;;;;4.72;76.24;99073.56;5059655;28;20048;-58
2023/02/11 10:52:26;;;;;;;7.28;3.65;;;;;;;4.82;75.23;99063.47;5050997;28;20041;-57
2023/02/11 10:55:13;;;;;;;9.07;4.35;;;;;;;4.84;75.13;99062.47;5054838;28;20201;-59
2023/02/11 10:58:01;;;;;;;10.15;5.05;;;;;;;4.94;75.39;99047.00;5059870;28;20060;-58
2023/02/11 11:00:41;;;;;;;9.80;4.72;;;;;;;5.01;75.80;99039.91;5053175;28;20055;-56
2023/02/11 11:03:19;;;;;;;8.30;4.03;;;;;;;4.98;74.45;99036.75;5055802;28;20032;-59
2023/02/11 11:05:52;;;;;;;10.40;4.93;;;;;;;5.10;73.63;99034.50;5055617;28;20051;-57
2023/02/11 11:08:19;;;;;;;8.80;4.65;;;;;;;5.08;76.52;99030.16;5061717;28;20094;-57
2023/02/11 11:11:02;;;;;;;8.90;4.82;;;;;;;5.23;74.94;99045.50;5056748;28;20041;-58
2023/02/11 11:13:34;;;;;;;11.55;4.82;;;;;;;5.23;74.34;99040.13;5053180;28;20029;-56
2023/02/11 11:16:07;;;;;;;9.35;4.30;;;;;;;5.24;73.72;99041.84;5059563;28;20049;-58
2023/02/11 11:18:33;;;;;;;8.55;4.60;;;;;;;5.23;72.75;99040.13;5053709;28;20041;-58
2023/02/11 11:21:04;;;;;;;7.78;4.32;;;;;;;5.21;72.47;99040.31;5060536;28;20102;-57
2023/02/11 11:23:32;;;;;;;9.20;4.70;;;;;;;5.15;73.25;99038.34;5058951;28;20111;-59
2023/02/11 11:26:08;;;;;;;8.23;4.07;;;;;;;5.21;73.69;99042.19;5057373;28;20048;-57
2023/02/11 11:28:39;;;;;;;9.48;4.47;;;;;;;5.27;74.80;99037.97;5057125;28;20043;-59
2023/02/11 11:31:44;;;;;;;12.13;4.50;;;;;;;5.39;74.43;99039.22;5059618;28;20041;-59
2023/02/11 11:34:28;;;;;;;8.45;4.50;;;;;;;5.52;73.10;99040.47;5049228;28;20044;-57
2023/02/11 11:36:57;;;;;;;7.53;3.83;;;;;;;5.59;73.08;99039.59;5056341;28;20037;-59
2023/02/11 11:39:26;;;;;;;10.63;4.53;;;;;;;5.64;73.15;99040.91;5061032;28;20123;-57
2023/02/11 11:42:23;;;;;;;15.10;5.20;;;;;;;5.66;72.63;99041.56;5056070;28;20102;-58